sensor_id;sensor_type;location;lat;lon;timestamp;P1;durP1;ratioP1;P2;durP2;ratioP2
54388;SDS011;40975;50.390;8.640;2022-12-07T00:04:05;17.58;;;7.93;;
54388;SDS011;40975;50.390;8.640;2022-12-07T00:06:36;19.58;;;8.50;;
54388;SDS011;40975;50.390;8.640;2022-12-07T00:09:03;19.73;;;9.43;;
54388;SDS011;40975;50.390;8.640;2022-12-07T00:11:30;18.15;;;8.15;;
54388;SDS011;40975;50.390;8.640;2022-12-07T00:13:57;15.52;;;8.13;;
54388;SDS011;40975;50.390;8.640;2022-12-07T00:16:25;20.85;;;8.32;;
54388;SDS011;40975;50.390;8.640;2022-12-07T00:18:52;21.50;;;9.90;;
54388;SDS011;40975;50.390;8.640;2022-12-07T00:21:22;20.90;;;8.55;;
54388;SDS011;40975;50.390;8.640;2022-12-07T00:23:50;19.63;;;8.60;;
54388;SDS011;40975;50.390;8.640;2022-12-07T00:26:17;16.95;;;8.48;;
54388;SDS011;40975;50.390;8.640;2022-12-07T00:28:45;18.08;;;8.93;;
54388;SDS011;40975;50.390;8.640;2022-12-07T00:31:15;16.35;;;8.00;;
54388;SDS011;40975;50.390;8.640;2022-12-07T00:33:42;20.05;;;8.43;;
54388;SDS011;40975;50.390;8.640;2022-12-07T00:36:13;16.83;;;7.63;;
54388;SDS011;40975;50.390;8.640;2022-12-07T00:38:40;14.27;;;7.47;;
54388;SDS011;40975;50.390;8.640;2022-12-07T00:41:07;17.65;;;8.05;;
54388;SDS011;40975;50.390;8.640;2022-12-07T00:43:36;14.43;;;7.28;;
54388;SDS011;40975;50.390;8.640;2022-12-07T00:46:01;16.30;;;7.25;;
54388;SDS011;40975;50.390;8.640;2022-12-07T00:48:26;15.43;;;7.55;;
54388;SDS011;40975;50.390;8.640;2022-12-07T00:50:52;15.07;;;8.05;;
54388;SDS011;40975;50.390;8.640;2022-12-07T00:53:19;11.32;;;6.15;;
54388;SDS011;40975;50.390;8.640;2022-12-07T00:55:44;13.48;;;6.88;;
54388;SDS011;40975;50.390;8.640;2022-12-07T00:58:10;16.00;;;7.13;;
54388;SDS011;40975;50.390;8.640;2022-12-07T01:00:36;11.50;;;6.00;;
54388;SDS011;40975;50.390;8.640;2022-12-07T01:03:03;14.20;;;7.00;;
54388;SDS011;40975;50.390;8.640;2022-12-07T01:05:29;14.63;;;5.90;;
54388;SDS011;40975;50.390;8.640;2022-12-07T01:07:54;11.20;;;5.93;;
54388;SDS011;40975;50.390;8.640;2022-12-07T01:10:20;13.52;;;6.38;;
54388;SDS011;40975;50.390;8.640;2022-12-07T01:12:45;13.65;;;6.53;;
54388;SDS011;40975;50.390;8.640;2022-12-07T01:15:10;15.90;;;6.93;;
54388;SDS011;40975;50.390;8.640;2022-12-07T01:17:36;10.05;;;5.32;;
54388;SDS011;40975;50.390;8.640;2022-12-07T01:20:01;12.68;;;5.65;;
54388;SDS011;40975;50.390;8.640;2022-12-07T01:22:28;12.70;;;6.30;;
54388;SDS011;40975;50.390;8.640;2022-12-07T01:24:53;11.02;;;5.47;;
54388;SDS011;40975;50.390;8.640;2022-12-07T01:27:18;12.57;;;5.88;;
54388;SDS011;40975;50.390;8.640;2022-12-07T01:29:44;9.30;;;4.93;;
54388;SDS011;40975;50.390;8.640;2022-12-07T01:32:09;12.38;;;5.40;;
54388;SDS011;40975;50.390;8.640;2022-12-07T01:34:35;13.40;;;5.28;;
54388;SDS011;40975;50.390;8.640;2022-12-07T01:37:00;11.15;;;5.47;;
54388;SDS011;40975;50.390;8.640;2022-12-07T01:39:25;9.95;;;5.13;;
54388;SDS011;40975;50.390;8.640;2022-12-07T01:41:52;10.07;;;4.72;;
54388;SDS011;40975;50.390;8.640;2022-12-07T01:46:49;10.38;;;4.50;;
54388;SDS011;40975;50.390;8.640;2022-12-07T01:49:37;9.70;;;4.57;;
54388;SDS011;40975;50.390;8.640;2022-12-07T01:54:47;9.80;;;4.10;;
54388;SDS011;40975;50.390;8.640;2022-12-07T01:57:16;6.57;;;3.78;;
54388;SDS011;40975;50.390;8.640;2022-12-07T01:59:42;10.00;;;4.50;;
54388;SDS011;40975;50.390;8.640;2022-12-07T02:02:43;9.25;;;4.75;;
54388;SDS011;40975;50.390;8.640;2022-12-07T02:05:19;7.05;;;4.00;;
54388;SDS011;40975;50.390;8.640;2022-12-07T02:07:45;6.43;;;3.92;;
54388;SDS011;40975;50.390;8.640;2022-12-07T02:10:17;7.50;;;3.42;;
54388;SDS011;40975;50.390;8.640;2022-12-07T02:12:45;6.28;;;3.70;;
54388;SDS011;40975;50.390;8.640;2022-12-07T02:15:13;8.23;;;3.63;;
54388;SDS011;40975;50.390;8.640;2022-12-07T02:23:23;10.57;;;3.55;;
54388;SDS011;40975;50.390;8.640;2022-12-07T02:25:57;8.50;;;4.50;;
54388;SDS011;40975;50.390;8.640;2022-12-07T02:28:35;7.32;;;3.85;;
54388;SDS011;40975;50.390;8.640;2022-12-07T02:31:15;9.15;;;3.72;;
54388;SDS011;40975;50.390;8.640;2022-12-07T02:33:45;6.90;;;3.40;;
54388;SDS011;40975;50.390;8.640;2022-12-07T02:36:27;8.45;;;3.97;;
54388;SDS011;40975;50.390;8.640;2022-12-07T02:41:47;7.72;;;4.15;;
54388;SDS011;40975;50.390;8.640;2022-12-07T02:44:18;7.90;;;3.95;;
54388;SDS011;40975;50.390;8.640;2022-12-07T02:46:49;7.32;;;3.28;;
54388;SDS011;40975;50.390;8.640;2022-12-07T02:49:19;5.53;;;3.35;;
54388;SDS011;40975;50.390;8.640;2022-12-07T02:51:48;6.30;;;3.95;;
54388;SDS011;40975;50.390;8.640;2022-12-07T02:54:14;5.80;;;3.10;;
54388;SDS011;40975;50.390;8.640;2022-12-07T03:04:45;6.32;;;3.20;;
54388;SDS011;40975;50.390;8.640;2022-12-07T03:07:26;8.38;;;4.18;;
54388;SDS011;40975;50.390;8.640;2022-12-07T03:12:28;8.90;;;4.15;;
54388;SDS011;40975;50.390;8.640;2022-12-07T03:15:01;7.90;;;4.05;;
54388;SDS011;40975;50.390;8.640;2022-12-07T03:17:35;7.63;;;4.03;;
54388;SDS011;40975;50.390;8.640;2022-12-07T03:20:05;10.23;;;4.57;;
54388;SDS011;40975;50.390;8.640;2022-12-07T03:22:33;8.13;;;4.70;;
54388;SDS011;40975;50.390;8.640;2022-12-07T03:25:03;6.45;;;3.70;;
54388;SDS011;40975;50.390;8.640;2022-12-07T03:28:16;6.60;;;3.67;;
54388;SDS011;40975;50.390;8.640;2022-12-07T03:30:42;6.88;;;4.07;;
54388;SDS011;40975;50.390;8.640;2022-12-07T03:36:06;11.20;;;4.00;;
54388;SDS011;40975;50.390;8.640;2022-12-07T03:39:21;7.20;;;3.95;;
54388;SDS011;40975;50.390;8.640;2022-12-07T03:41:42;6.20;;;3.97;;
54388;SDS011;40975;50.390;8.640;2022-12-07T03:44:08;10.13;;;3.72;;
54388;SDS011;40975;50.390;8.640;2022-12-07T03:46:39;6.82;;;3.97;;
54388;SDS011;40975;50.390;8.640;2022-12-07T03:56:49;7.50;;;4.43;;
54388;SDS011;40975;50.390;8.640;2022-12-07T03:59:16;6.95;;;3.08;;
54388;SDS011;40975;50.390;8.640;2022-12-07T04:01:43;7.57;;;3.83;;
54388;SDS011;40975;50.390;8.640;2022-12-07T04:04:10;10.02;;;5.00;;
54388;SDS011;40975;50.390;8.640;2022-12-07T04:06:35;8.13;;;4.18;;
54388;SDS011;40975;50.390;8.640;2022-12-07T04:09:01;8.05;;;4.65;;
54388;SDS011;40975;50.390;8.640;2022-12-07T04:11:26;8.43;;;4.53;;
54388;SDS011;40975;50.390;8.640;2022-12-07T04:13:51;7.72;;;4.13;;
54388;SDS011;40975;50.390;8.640;2022-12-07T04:16:35;10.65;;;5.07;;
54388;SDS011;40975;50.390;8.640;2022-12-07T04:19:00;10.43;;;4.85;;
54388;SDS011;40975;50.390;8.640;2022-12-07T04:21:26;9.52;;;4.97;;
54388;SDS011;40975;50.390;8.640;2022-12-07T04:23:52;9.30;;;5.18;;
54388;SDS011;40975;50.390;8.640;2022-12-07T04:26:17;10.02;;;5.28;;
54388;SDS011;40975;50.390;8.640;2022-12-07T04:28:43;10.18;;;4.72;;
54388;SDS011;40975;50.390;8.640;2022-12-07T04:31:08;11.30;;;5.43;;
54388;SDS011;40975;50.390;8.640;2022-12-07T04:33:34;11.65;;;4.90;;
54388;SDS011;40975;50.390;8.640;2022-12-07T04:36:00;8.60;;;4.57;;
54388;SDS011;40975;50.390;8.640;2022-12-07T04:38:25;8.02;;;4.13;;
54388;SDS011;40975;50.390;8.640;2022-12-07T04:40:51;9.15;;;4.28;;
54388;SDS011;40975;50.390;8.640;2022-12-07T04:43:16;12.52;;;5.32;;
54388;SDS011;40975;50.390;8.640;2022-12-07T04:45:45;11.20;;;4.53;;
54388;SDS011;40975;50.390;8.640;2022-12-07T04:48:12;12.82;;;5.00;;
54388;SDS011;40975;50.390;8.640;2022-12-07T04:50:37;8.88;;;4.82;;
54388;SDS011;40975;50.390;8.640;2022-12-07T04:53:03;10.68;;;5.22;;
54388;SDS011;40975;50.390;8.640;2022-12-07T04:55:28;8.93;;;4.60;;
54388;SDS011;40975;50.390;8.640;2022-12-07T04:57:53;9.43;;;4.95;;
54388;SDS011;40975;50.390;8.640;2022-12-07T05:00:19;8.88;;;4.55;;
54388;SDS011;40975;50.390;8.640;2022-12-07T05:02:44;7.72;;;4.43;;
54388;SDS011;40975;50.390;8.640;2022-12-07T05:05:10;8.25;;;4.80;;
54388;SDS011;40975;50.390;8.640;2022-12-07T05:07:35;8.02;;;4.75;;
54388;SDS011;40975;50.390;8.640;2022-12-07T05:10:00;8.15;;;4.47;;
54388;SDS011;40975;50.390;8.640;2022-12-07T05:12:25;7.53;;;5.03;;
54388;SDS011;40975;50.390;8.640;2022-12-07T05:14:51;5.90;;;3.85;;
54388;SDS011;40975;50.390;8.640;2022-12-07T05:17:16;9.15;;;4.32;;
54388;SDS011;40975;50.390;8.640;2022-12-07T05:19:41;10.05;;;5.07;;
54388;SDS011;40975;50.390;8.640;2022-12-07T05:22:07;10.00;;;5.00;;
54388;SDS011;40975;50.390;8.640;2022-12-07T05:24:32;8.48;;;4.55;;
54388;SDS011;40975;50.390;8.640;2022-12-07T05:26:57;10.27;;;5.47;;
54388;SDS011;40975;50.390;8.640;2022-12-07T05:29:23;10.00;;;5.10;;
54388;SDS011;40975;50.390;8.640;2022-12-07T05:31:48;10.32;;;5.40;;
54388;SDS011;40975;50.390;8.640;2022-12-07T05:34:14;7.47;;;4.30;;
54388;SDS011;40975;50.390;8.640;2022-12-07T05:36:39;10.88;;;5.35;;
54388;SDS011;40975;50.390;8.640;2022-12-07T05:39:05;9.98;;;5.63;;
54388;SDS011;40975;50.390;8.640;2022-12-07T05:41:30;10.27;;;4.93;;
54388;SDS011;40975;50.390;8.640;2022-12-07T05:44:14;10.13;;;4.97;;
54388;SDS011;40975;50.390;8.640;2022-12-07T05:46:39;12.30;;;6.15;;
54388;SDS011;40975;50.390;8.640;2022-12-07T05:49:05;13.55;;;5.78;;
54388;SDS011;40975;50.390;8.640;2022-12-07T05:51:30;11.25;;;5.90;;
54388;SDS011;40975;50.390;8.640;2022-12-07T05:53:55;12.60;;;6.45;;
54388;SDS011;40975;50.390;8.640;2022-12-07T05:56:21;10.75;;;6.22;;
54388;SDS011;40975;50.390;8.640;2022-12-07T05:58:46;10.23;;;5.72;;
54388;SDS011;40975;50.390;8.640;2022-12-07T06:01:30;10.05;;;5.43;;
54388;SDS011;40975;50.390;8.640;2022-12-07T06:03:55;11.63;;;5.63;;
54388;SDS011;40975;50.390;8.640;2022-12-07T06:06:21;10.45;;;5.15;;
54388;SDS011;40975;50.390;8.640;2022-12-07T06:08:46;11.10;;;5.30;;
54388;SDS011;40975;50.390;8.640;2022-12-07T06:11:11;8.82;;;4.93;;
54388;SDS011;40975;50.390;8.640;2022-12-07T06:13:55;9.10;;;4.72;;
54388;SDS011;40975;50.390;8.640;2022-12-07T06:16:21;10.40;;;4.90;;
54388;SDS011;40975;50.390;8.640;2022-12-07T06:18:46;6.80;;;3.92;;
54388;SDS011;40975;50.390;8.640;2022-12-07T06:21:11;8.95;;;4.43;;
54388;SDS011;40975;50.390;8.640;2022-12-07T06:23:37;7.20;;;4.10;;
54388;SDS011;40975;50.390;8.640;2022-12-07T06:26:02;8.50;;;4.10;;
54388;SDS011;40975;50.390;8.640;2022-12-07T06:28:27;8.52;;;4.85;;
54388;SDS011;40975;50.390;8.640;2022-12-07T06:31:00;10.02;;;5.32;;
54388;SDS011;40975;50.390;8.640;2022-12-07T06:33:27;10.93;;;4.63;;
54388;SDS011;40975;50.390;8.640;2022-12-07T06:35:53;8.07;;;4.35;;
54388;SDS011;40975;50.390;8.640;2022-12-07T06:38:18;7.78;;;4.25;;
54388;SDS011;40975;50.390;8.640;2022-12-07T06:40:43;6.32;;;3.75;;
54388;SDS011;40975;50.390;8.640;2022-12-07T06:43:09;7.93;;;4.07;;
54388;SDS011;40975;50.390;8.640;2022-12-07T06:45:34;9.18;;;4.25;;
54388;SDS011;40975;50.390;8.640;2022-12-07T06:48:00;7.70;;;4.20;;
54388;SDS011;40975;50.390;8.640;2022-12-07T06:50:25;7.70;;;3.95;;
54388;SDS011;40975;50.390;8.640;2022-12-07T06:52:51;8.25;;;4.03;;
54388;SDS011;40975;50.390;8.640;2022-12-07T06:55:17;5.53;;;4.00;;
54388;SDS011;40975;50.390;8.640;2022-12-07T06:57:42;8.00;;;4.45;;
54388;SDS011;40975;50.390;8.640;2022-12-07T07:00:08;6.55;;;3.63;;
54388;SDS011;40975;50.390;8.640;2022-12-07T07:02:33;7.57;;;4.38;;
54388;SDS011;40975;50.390;8.640;2022-12-07T07:04:59;7.38;;;3.83;;
54388;SDS011;40975;50.390;8.640;2022-12-07T07:07:24;5.97;;;3.47;;
54388;SDS011;40975;50.390;8.640;2022-12-07T07:09:49;7.38;;;3.47;;
54388;SDS011;40975;50.390;8.640;2022-12-07T07:12:15;5.57;;;3.53;;
54388;SDS011;40975;50.390;8.640;2022-12-07T07:14:40;6.35;;;3.42;;
54388;SDS011;40975;50.390;8.640;2022-12-07T07:17:05;6.70;;;3.70;;
54388;SDS011;40975;50.390;8.640;2022-12-07T07:19:31;6.03;;;3.30;;
54388;SDS011;40975;50.390;8.640;2022-12-07T07:21:56;7.03;;;4.15;;
54388;SDS011;40975;50.390;8.640;2022-12-07T07:24:21;5.38;;;4.22;;
54388;SDS011;40975;50.390;8.640;2022-12-07T07:26:47;6.88;;;3.80;;
54388;SDS011;40975;50.390;8.640;2022-12-07T07:29:12;9.10;;;4.43;;
54388;SDS011;40975;50.390;8.640;2022-12-07T07:31:37;6.50;;;4.18;;
54388;SDS011;40975;50.390;8.640;2022-12-07T07:34:02;7.25;;;4.95;;
54388;SDS011;40975;50.390;8.640;2022-12-07T07:36:28;6.32;;;3.80;;
54388;SDS011;40975;50.390;8.640;2022-12-07T07:38:53;7.57;;;4.03;;
54388;SDS011;40975;50.390;8.640;2022-12-07T07:41:18;6.40;;;3.70;;
54388;SDS011;40975;50.390;8.640;2022-12-07T07:43:44;7.35;;;3.95;;
54388;SDS011;40975;50.390;8.640;2022-12-07T07:46:09;5.85;;;3.20;;
54388;SDS011;40975;50.390;8.640;2022-12-07T07:48:35;9.93;;;4.00;;
54388;SDS011;40975;50.390;8.640;2022-12-07T07:51:00;7.53;;;3.70;;
54388;SDS011;40975;50.390;8.640;2022-12-07T07:53:30;7.30;;;3.80;;
54388;SDS011;40975;50.390;8.640;2022-12-07T07:55:55;9.35;;;3.95;;
54388;SDS011;40975;50.390;8.640;2022-12-07T07:58:21;9.35;;;4.28;;
54388;SDS011;40975;50.390;8.640;2022-12-07T08:00:46;8.70;;;4.47;;
54388;SDS011;40975;50.390;8.640;2022-12-07T08:03:12;7.68;;;4.85;;
54388;SDS011;40975;50.390;8.640;2022-12-07T08:05:37;8.85;;;4.43;;
54388;SDS011;40975;50.390;8.640;2022-12-07T08:08:03;8.00;;;4.45;;
54388;SDS011;40975;50.390;8.640;2022-12-07T08:10:29;6.30;;;4.35;;
54388;SDS011;40975;50.390;8.640;2022-12-07T08:12:54;7.90;;;4.18;;
54388;SDS011;40975;50.390;8.640;2022-12-07T08:15:38;7.03;;;3.80;;
54388;SDS011;40975;50.390;8.640;2022-12-07T08:18:05;6.60;;;3.83;;
54388;SDS011;40975;50.390;8.640;2022-12-07T08:20:31;8.95;;;3.72;;
54388;SDS011;40975;50.390;8.640;2022-12-07T08:22:57;9.88;;;4.28;;
54388;SDS011;40975;50.390;8.640;2022-12-07T08:25:23;10.30;;;4.18;;
54388;SDS011;40975;50.390;8.640;2022-12-07T08:27:48;9.95;;;4.60;;
54388;SDS011;40975;50.390;8.640;2022-12-07T08:30:15;7.15;;;4.05;;
54388;SDS011;40975;50.390;8.640;2022-12-07T08:32:41;10.13;;;4.60;;
54388;SDS011;40975;50.390;8.640;2022-12-07T08:35:06;12.35;;;4.10;;
54388;SDS011;40975;50.390;8.640;2022-12-07T08:37:32;7.47;;;3.70;;
54388;SDS011;40975;50.390;8.640;2022-12-07T08:39:58;6.60;;;4.18;;
54388;SDS011;40975;50.390;8.640;2022-12-07T08:42:23;6.00;;;3.95;;
54388;SDS011;40975;50.390;8.640;2022-12-07T08:44:52;6.78;;;3.78;;
54388;SDS011;40975;50.390;8.640;2022-12-07T08:47:18;6.90;;;4.00;;
54388;SDS011;40975;50.390;8.640;2022-12-07T08:49:44;9.85;;;4.15;;
54388;SDS011;40975;50.390;8.640;2022-12-07T08:52:12;5.25;;;3.30;;
54388;SDS011;40975;50.390;8.640;2022-12-07T08:54:38;4.15;;;2.72;;
54388;SDS011;40975;50.390;8.640;2022-12-07T08:57:05;8.63;;;3.80;;
54388;SDS011;40975;50.390;8.640;2022-12-07T08:59:32;4.65;;;3.22;;
54388;SDS011;40975;50.390;8.640;2022-12-07T09:01:59;3.97;;;2.63;;
54388;SDS011;40975;50.390;8.640;2022-12-07T09:04:24;5.10;;;3.00;;
54388;SDS011;40975;50.390;8.640;2022-12-07T09:06:50;3.78;;;2.60;;
54388;SDS011;40975;50.390;8.640;2022-12-07T09:09:15;4.50;;;3.00;;
54388;SDS011;40975;50.390;8.640;2022-12-07T09:11:41;5.10;;;3.00;;
54388;SDS011;40975;50.390;8.640;2022-12-07T09:14:06;5.38;;;3.20;;
54388;SDS011;40975;50.390;8.640;2022-12-07T09:16:31;4.32;;;2.72;;
54388;SDS011;40975;50.390;8.640;2022-12-07T09:18:57;4.60;;;2.63;;
54388;SDS011;40975;50.390;8.640;2022-12-07T09:21:22;4.13;;;2.63;;
54388;SDS011;40975;50.390;8.640;2022-12-07T09:23:47;4.82;;;2.17;;
54388;SDS011;40975;50.390;8.640;2022-12-07T09:26:13;3.60;;;1.65;;
54388;SDS011;40975;50.390;8.640;2022-12-07T09:28:38;2.92;;;1.80;;
54388;SDS011;40975;50.390;8.640;2022-12-07T09:31:04;2.55;;;2.08;;
54388;SDS011;40975;50.390;8.640;2022-12-07T09:33:30;2.17;;;1.70;;
54388;SDS011;40975;50.390;8.640;2022-12-07T09:35:55;3.65;;;1.67;;
54388;SDS011;40975;50.390;8.640;2022-12-07T09:38:20;2.28;;;1.73;;
54388;SDS011;40975;50.390;8.640;2022-12-07T09:40:46;3.42;;;1.83;;
54388;SDS011;40975;50.390;8.640;2022-12-07T09:43:17;2.92;;;1.30;;
54388;SDS011;40975;50.390;8.640;2022-12-07T09:45:45;2.50;;;1.88;;
54388;SDS011;40975;50.390;8.640;2022-12-07T09:48:16;4.45;;;2.33;;
54388;SDS011;40975;50.390;8.640;2022-12-07T09:50:44;3.45;;;1.90;;
54388;SDS011;40975;50.390;8.640;2022-12-07T09:56:15;2.88;;;1.65;;
54388;SDS011;40975;50.390;8.640;2022-12-07T09:58:43;3.50;;;1.80;;
54388;SDS011;40975;50.390;8.640;2022-12-07T10:01:11;2.58;;;1.35;;
54388;SDS011;40975;50.390;8.640;2022-12-07T10:03:39;1.75;;;1.52;;
54388;SDS011;40975;50.390;8.640;2022-12-07T10:06:09;2.65;;;1.63;;
54388;SDS011;40975;50.390;8.640;2022-12-07T10:08:37;3.47;;;2.20;;
54388;SDS011;40975;50.390;8.640;2022-12-07T10:11:02;3.38;;;1.63;;
54388;SDS011;40975;50.390;8.640;2022-12-07T10:13:39;3.75;;;2.40;;
54388;SDS011;40975;50.390;8.640;2022-12-07T10:19:17;3.90;;;2.08;;
54388;SDS011;40975;50.390;8.640;2022-12-07T10:22:02;1.75;;;1.63;;
54388;SDS011;40975;50.390;8.640;2022-12-07T10:24:28;3.28;;;1.85;;
54388;SDS011;40975;50.390;8.640;2022-12-07T10:26:53;3.17;;;2.30;;
54388;SDS011;40975;50.390;8.640;2022-12-07T10:29:20;4.55;;;1.98;;
54388;SDS011;40975;50.390;8.640;2022-12-07T10:32:06;4.75;;;1.90;;
54388;SDS011;40975;50.390;8.640;2022-12-07T10:34:45;2.85;;;2.17;;
54388;SDS011;40975;50.390;8.640;2022-12-07T10:37:15;2.88;;;1.90;;
54388;SDS011;40975;50.390;8.640;2022-12-07T10:39:52;2.85;;;1.83;;
54388;SDS011;40975;50.390;8.640;2022-12-07T10:42:20;3.65;;;2.13;;
54388;SDS011;40975;50.390;8.640;2022-12-07T10:45:06;4.00;;;2.00;;
54388;SDS011;40975;50.390;8.640;2022-12-07T10:47:45;2.83;;;1.90;;
54388;SDS011;40975;50.390;8.640;2022-12-07T11:01:57;2.08;;;1.45;;
54388;SDS011;40975;50.390;8.640;2022-12-07T11:04:59;3.20;;;2.00;;
54388;SDS011;40975;50.390;8.640;2022-12-07T11:07:59;3.20;;;1.75;;
54388;SDS011;40975;50.390;8.640;2022-12-07T11:18:52;2.63;;;1.65;;
54388;SDS011;40975;50.390;8.640;2022-12-07T11:24:16;4.57;;;1.95;;
54388;SDS011;40975;50.390;8.640;2022-12-07T11:32:11;4.00;;;1.83;;
54388;SDS011;40975;50.390;8.640;2022-12-07T11:48:31;4.72;;;1.48;;
54388;SDS011;40975;50.390;8.640;2022-12-07T11:51:00;4.03;;;1.65;;
54388;SDS011;40975;50.390;8.640;2022-12-07T11:53:36;2.55;;;1.70;;
54388;SDS011;40975;50.390;8.640;2022-12-07T11:56:13;3.65;;;2.03;;
54388;SDS011;40975;50.390;8.640;2022-12-07T12:04:02;3.90;;;1.63;;
54388;SDS011;40975;50.390;8.640;2022-12-07T12:06:42;3.15;;;1.45;;
54388;SDS011;40975;50.390;8.640;2022-12-07T12:09:16;3.65;;;1.25;;
54388;SDS011;40975;50.390;8.640;2022-12-07T12:12:01;3.92;;;1.38;;
54388;SDS011;40975;50.390;8.640;2022-12-07T12:17:23;3.40;;;0.95;;
54388;SDS011;40975;50.390;8.640;2022-12-07T12:20:01;3.38;;;1.20;;
54388;SDS011;40975;50.390;8.640;2022-12-07T12:22:36;2.25;;;1.10;;
54388;SDS011;40975;50.390;8.640;2022-12-07T12:25:05;5.63;;;2.40;;
54388;SDS011;40975;50.390;8.640;2022-12-07T12:27:46;3.13;;;1.38;;
54388;SDS011;40975;50.390;8.640;2022-12-07T12:30:33;5.20;;;1.27;;
54388;SDS011;40975;50.390;8.640;2022-12-07T12:33:04;2.25;;;1.52;;
54388;SDS011;40975;50.390;8.640;2022-12-07T12:35:38;5.07;;;1.67;;
54388;SDS011;40975;50.390;8.640;2022-12-07T12:41:01;2.65;;;1.33;;
54388;SDS011;40975;50.390;8.640;2022-12-07T12:51:43;3.40;;;1.33;;
54388;SDS011;40975;50.390;8.640;2022-12-07T13:04:51;4.63;;;1.90;;
54388;SDS011;40975;50.390;8.640;2022-12-07T13:12:56;5.03;;;2.30;;
54388;SDS011;40975;50.390;8.640;2022-12-07T13:15:42;5.18;;;2.45;;
54388;SDS011;40975;50.390;8.640;2022-12-07T13:28:43;5.57;;;1.85;;
54388;SDS011;40975;50.390;8.640;2022-12-07T13:33:44;3.30;;;1.65;;
54388;SDS011;40975;50.390;8.640;2022-12-07T13:36:18;4.22;;;1.95;;
54388;SDS011;40975;50.390;8.640;2022-12-07T13:38:50;4.78;;;2.22;;
54388;SDS011;40975;50.390;8.640;2022-12-07T13:41:18;3.85;;;2.28;;
54388;SDS011;40975;50.390;8.640;2022-12-07T13:43:59;5.18;;;3.20;;
54388;SDS011;40975;50.390;8.640;2022-12-07T13:46:34;5.03;;;1.90;;
54388;SDS011;40975;50.390;8.640;2022-12-07T13:49:21;4.15;;;2.05;;
54388;SDS011;40975;50.390;8.640;2022-12-07T13:51:49;4.85;;;2.20;;
54388;SDS011;40975;50.390;8.640;2022-12-07T13:54:16;4.65;;;2.45;;
54388;SDS011;40975;50.390;8.640;2022-12-07T13:56:42;6.22;;;2.40;;
54388;SDS011;40975;50.390;8.640;2022-12-07T13:59:10;5.40;;;2.22;;
54388;SDS011;40975;50.390;8.640;2022-12-07T14:06:54;3.13;;;2.40;;
54388;SDS011;40975;50.390;8.640;2022-12-07T14:09:21;5.70;;;2.75;;
54388;SDS011;40975;50.390;8.640;2022-12-07T14:11:48;4.60;;;2.35;;
54388;SDS011;40975;50.390;8.640;2022-12-07T14:14:20;4.28;;;2.05;;
54388;SDS011;40975;50.390;8.640;2022-12-07T14:16:57;3.65;;;2.20;;
54388;SDS011;40975;50.390;8.640;2022-12-07T14:19:41;2.65;;;1.58;;
54388;SDS011;40975;50.390;8.640;2022-12-07T14:22:38;4.72;;;1.95;;
54388;SDS011;40975;50.390;8.640;2022-12-07T14:27:37;4.70;;;1.67;;
54388;SDS011;40975;50.390;8.640;2022-12-07T14:30:04;2.53;;;1.67;;
54388;SDS011;40975;50.390;8.640;2022-12-07T14:32:30;3.67;;;1.85;;
54388;SDS011;40975;50.390;8.640;2022-12-07T14:34:56;5.60;;;2.00;;
54388;SDS011;40975;50.390;8.640;2022-12-07T14:37:43;6.15;;;1.98;;
54388;SDS011;40975;50.390;8.640;2022-12-07T14:40:17;3.95;;;1.90;;
54388;SDS011;40975;50.390;8.640;2022-12-07T14:42:45;2.45;;;1.70;;
54388;SDS011;40975;50.390;8.640;2022-12-07T14:45:15;3.53;;;1.90;;
54388;SDS011;40975;50.390;8.640;2022-12-07T14:47:43;4.77;;;2.33;;
54388;SDS011;40975;50.390;8.640;2022-12-07T14:50:11;3.72;;;1.50;;
54388;SDS011;40975;50.390;8.640;2022-12-07T14:52:37;3.65;;;1.77;;
54388;SDS011;40975;50.390;8.640;2022-12-07T14:55:04;5.10;;;2.03;;
54388;SDS011;40975;50.390;8.640;2022-12-07T14:57:37;4.53;;;2.22;;
54388;SDS011;40975;50.390;8.640;2022-12-07T15:00:02;3.65;;;1.67;;
54388;SDS011;40975;50.390;8.640;2022-12-07T15:02:28;4.70;;;2.13;;
54388;SDS011;40975;50.390;8.640;2022-12-07T15:04:53;3.22;;;1.50;;
54388;SDS011;40975;50.390;8.640;2022-12-07T15:07:19;3.00;;;1.83;;
54388;SDS011;40975;50.390;8.640;2022-12-07T15:09:46;5.00;;;2.15;;
54388;SDS011;40975;50.390;8.640;2022-12-07T15:12:11;10.18;;;2.30;;
54388;SDS011;40975;50.390;8.640;2022-12-07T15:14:36;4.18;;;2.05;;
54388;SDS011;40975;50.390;8.640;2022-12-07T15:17:02;5.13;;;2.33;;
54388;SDS011;40975;50.390;8.640;2022-12-07T15:19:27;5.53;;;2.25;;
54388;SDS011;40975;50.390;8.640;2022-12-07T15:21:53;2.80;;;1.88;;
54388;SDS011;40975;50.390;8.640;2022-12-07T15:24:19;3.22;;;1.90;;
54388;SDS011;40975;50.390;8.640;2022-12-07T15:26:45;3.38;;;1.90;;
54388;SDS011;40975;50.390;8.640;2022-12-07T15:29:10;3.88;;;2.03;;
54388;SDS011;40975;50.390;8.640;2022-12-07T15:31:36;5.43;;;2.20;;
54388;SDS011;40975;50.390;8.640;2022-12-07T15:34:03;4.90;;;1.90;;
54388;SDS011;40975;50.390;8.640;2022-12-07T15:36:30;2.25;;;1.88;;
54388;SDS011;40975;50.390;8.640;2022-12-07T15:38:56;4.90;;;1.92;;
54388;SDS011;40975;50.390;8.640;2022-12-07T15:41:22;4.63;;;1.52;;
54388;SDS011;40975;50.390;8.640;2022-12-07T15:43:48;3.55;;;1.83;;
54388;SDS011;40975;50.390;8.640;2022-12-07T15:46:32;2.90;;;1.27;;
54388;SDS011;40975;50.390;8.640;2022-12-07T15:48:59;4.38;;;1.33;;
54388;SDS011;40975;50.390;8.640;2022-12-07T15:51:25;1.95;;;1.13;;
54388;SDS011;40975;50.390;8.640;2022-12-07T15:53:51;2.90;;;1.02;;
54388;SDS011;40975;50.390;8.640;2022-12-07T15:56:16;3.42;;;1.25;;
54388;SDS011;40975;50.390;8.640;2022-12-07T15:58:42;2.42;;;1.13;;
54388;SDS011;40975;50.390;8.640;2022-12-07T16:01:14;2.22;;;0.90;;
54388;SDS011;40975;50.390;8.640;2022-12-07T16:03:41;3.80;;;1.15;;
54388;SDS011;40975;50.390;8.640;2022-12-07T16:06:07;2.22;;;0.90;;
54388;SDS011;40975;50.390;8.640;2022-12-07T16:08:32;1.23;;;0.90;;
54388;SDS011;40975;50.390;8.640;2022-12-07T16:10:58;2.17;;;0.88;;
54388;SDS011;40975;50.390;8.640;2022-12-07T16:13:23;0.90;;;0.85;;
54388;SDS011;40975;50.390;8.640;2022-12-07T16:15:48;1.98;;;1.15;;
54388;SDS011;40975;50.390;8.640;2022-12-07T16:18:14;2.05;;;0.90;;
54388;SDS011;40975;50.390;8.640;2022-12-07T16:20:39;1.15;;;0.90;;
54388;SDS011;40975;50.390;8.640;2022-12-07T16:23:05;2.67;;;1.10;;
54388;SDS011;40975;50.390;8.640;2022-12-07T16:25:32;2.58;;;1.10;;
54388;SDS011;40975;50.390;8.640;2022-12-07T16:27:57;2.85;;;0.93;;
54388;SDS011;40975;50.390;8.640;2022-12-07T16:30:22;2.78;;;1.15;;
54388;SDS011;40975;50.390;8.640;2022-12-07T16:32:48;2.58;;;1.27;;
54388;SDS011;40975;50.390;8.640;2022-12-07T16:35:13;2.40;;;1.20;;
54388;SDS011;40975;50.390;8.640;2022-12-07T16:37:38;1.55;;;1.15;;
54388;SDS011;40975;50.390;8.640;2022-12-07T16:40:06;2.28;;;1.23;;
54388;SDS011;40975;50.390;8.640;2022-12-07T16:42:32;5.25;;;1.70;;
54388;SDS011;40975;50.390;8.640;2022-12-07T16:44:58;4.20;;;1.70;;
54388;SDS011;40975;50.390;8.640;2022-12-07T16:47:24;4.10;;;1.80;;
54388;SDS011;40975;50.390;8.640;2022-12-07T16:49:49;6.03;;;2.40;;
54388;SDS011;40975;50.390;8.640;2022-12-07T16:52:14;5.70;;;1.85;;
54388;SDS011;40975;50.390;8.640;2022-12-07T16:54:40;3.85;;;1.95;;
54388;SDS011;40975;50.390;8.640;2022-12-07T16:57:05;3.53;;;2.17;;
54388;SDS011;40975;50.390;8.640;2022-12-07T16:59:30;2.55;;;1.90;;
54388;SDS011;40975;50.390;8.640;2022-12-07T17:01:56;3.97;;;2.20;;
54388;SDS011;40975;50.390;8.640;2022-12-07T17:04:21;3.70;;;2.47;;
54388;SDS011;40975;50.390;8.640;2022-12-07T17:06:47;6.50;;;2.22;;
54388;SDS011;40975;50.390;8.640;2022-12-07T17:09:12;6.82;;;2.40;;
54388;SDS011;40975;50.390;8.640;2022-12-07T17:11:38;3.53;;;2.47;;
54388;SDS011;40975;50.390;8.640;2022-12-07T17:14:03;4.30;;;1.80;;
54388;SDS011;40975;50.390;8.640;2022-12-07T17:16:48;5.45;;;1.98;;